sensor_id;sensor_type;location;lat;lon;timestamp;pressure;altitude;pressure_sealevel;temperature;humidity
5883;BME280;2967;51.488;6.618;2023-03-26T00:02:04;100467.69;;;9.79;100.00
5883;BME280;2967;51.488;6.618;2023-03-26T00:07:11;100455.00;;;9.84;100.00
5883;BME280;2967;51.488;6.618;2023-03-26T00:12:15;100314.88;;;8.96;100.00
5883;BME280;2967;51.488;6.618;2023-03-26T00:17:24;100387.22;;;9.45;100.00
5883;BME280;2967;51.488;6.618;2023-03-26T00:22:32;100457.97;;;9.92;100.00
5883;BME280;2967;51.488;6.618;2023-03-26T00:27:35;100371.47;;;9.44;100.00
5883;BME280;2967;51.488;6.618;2023-03-26T00:32:46;100461.06;;;9.98;100.00
5883;BME280;2967;51.488;6.618;2023-03-26T00:37:54;100454.00;;;9.99;100.00
5883;BME280;2967;51.488;6.618;2023-03-26T00:42:58;100373.16;;;9.45;100.00
5883;BME280;2967;51.488;6.618;2023-03-26T00:48:04;100317.03;;;9.16;100.00
5883;BME280;2967;51.488;6.618;2023-03-26T00:53:10;100432.72;;;9.88;100.00
5883;BME280;2967;51.488;6.618;2023-03-26T00:58:18;100280.88;;;8.92;100.00
5883;BME280;2967;51.488;6.618;2023-03-26T01:03:26;100405.56;;;9.73;100.00
5883;BME280;2967;51.488;6.618;2023-03-26T01:08:34;100360.47;;;9.37;100.00
5883;BME280;2967;51.488;6.618;2023-03-26T01:13:45;100346.25;;;9.40;100.00
5883;BME280;2967;51.488;6.618;2023-03-26T01:18:50;100396.25;;;9.80;100.00
5883;BME280;2967;51.488;6.618;2023-03-26T01:23:58;100374.38;;;9.53;100.00
5883;BME280;2967;51.488;6.618;2023-03-26T01:29:03;100338.28;;;9.27;100.00
5883;BME280;2967;51.488;6.618;2023-03-26T01:34:13;100421.53;;;9.84;100.00
5883;BME280;2967;51.488;6.618;2023-03-26T01:39:23;100408.84;;;9.89;100.00
5883;BME280;2967;51.488;6.618;2023-03-26T01:44:31;100405.03;;;9.81;100.00
5883;BME280;2967;51.488;6.618;2023-03-26T01:49:36;100390.88;;;9.82;100.00
5883;BME280;2967;51.488;6.618;2023-03-26T01:54:40;100383.91;;;9.81;100.00
5883;BME280;2967;51.488;6.618;2023-03-26T02:00:00;100371.09;;;9.75;100.00
5883;BME280;2967;51.488;6.618;2023-03-26T02:05:16;100171.66;;;8.57;100.00
5883;BME280;2967;51.488;6.618;2023-03-26T02:10:27;100279.81;;;9.33;100.00
5883;BME280;2967;51.488;6.618;2023-03-26T02:15:31;100357.59;;;9.79;100.00
5883;BME280;2967;51.488;6.618;2023-03-26T02:20:35;100157.66;;;8.69;100.00
5883;BME280;2967;51.488;6.618;2023-03-26T02:25:41;100349.25;;;9.85;100.00
5883;BME280;2967;51.488;6.618;2023-03-26T02:30:44;100335.19;;;9.85;100.00
5883;BME280;2967;51.488;6.618;2023-03-26T02:35:49;100340.59;;;9.83;100.00
5883;BME280;2967;51.488;6.618;2023-03-26T02:40:58;100331.81;;;9.83;100.00
5883;BME280;2967;51.488;6.618;2023-03-26T02:46:11;100326.09;;;9.76;100.00
5883;BME280;2967;51.488;6.618;2023-03-26T02:51:33;100315.84;;;9.72;100.00
5883;BME280;2967;51.488;6.618;2023-03-26T02:56:40;100284.78;;;9.63;100.00
5883;BME280;2967;51.488;6.618;2023-03-26T03:02:02;100279.31;;;9.53;100.00
5883;BME280;2967;51.488;6.618;2023-03-26T03:07:07;100170.22;;;8.90;100.00
5883;BME280;2967;51.488;6.618;2023-03-26T03:12:11;100232.09;;;9.36;100.00
5883;BME280;2967;51.488;6.618;2023-03-26T03:17:14;100210.34;;;9.20;100.00
5883;BME280;2967;51.488;6.618;2023-03-26T03:22:17;100255.88;;;9.49;100.00
5883;BME280;2967;51.488;6.618;2023-03-26T03:27:24;100153.88;;;8.85;100.00
5883;BME280;2967;51.488;6.618;2023-03-26T03:32:35;100158.59;;;8.80;100.00
5883;BME280;2967;51.488;6.618;2023-03-26T03:37:40;100211.59;;;9.15;100.00
5883;BME280;2967;51.488;6.618;2023-03-26T03:42:45;100163.56;;;8.85;100.00
5883;BME280;2967;51.488;6.618;2023-03-26T03:47:56;100160.53;;;8.91;100.00
5883;BME280;2967;51.488;6.618;2023-03-26T03:53:12;100214.16;;;9.29;100.00
5883;BME280;2967;51.488;6.618;2023-03-26T03:58:21;100221.31;;;9.27;100.00
5883;BME280;2967;51.488;6.618;2023-03-26T04:03:26;100183.19;;;9.06;100.00
5883;BME280;2967;51.488;6.618;2023-03-26T04:08:35;100109.78;;;8.62;100.00
5883;BME280;2967;51.488;6.618;2023-03-26T04:13:41;100143.22;;;8.74;100.00
5883;BME280;2967;51.488;6.618;2023-03-26T04:19:06;99821.69;;;6.98;100.00
5883;BME280;2967;51.488;6.618;2023-03-26T04:24:09;100136.06;;;8.89;100.00
5883;BME280;2967;51.488;6.618;2023-03-26T04:29:45;100182.78;;;9.12;100.00
5883;BME280;2967;51.488;6.618;2023-03-26T04:34:57;100106.28;;;8.74;100.00
5883;BME280;2967;51.488;6.618;2023-03-26T04:40:02;100016.81;;;8.21;100.00
5883;BME280;2967;51.488;6.618;2023-03-26T04:45:23;100119.59;;;8.98;100.00
5883;BME280;2967;51.488;6.618;2023-03-26T04:50:30;100160.31;;;9.31;100.00
5883;BME280;2967;51.488;6.618;2023-03-26T04:55:38;99914.38;;;7.92;100.00
5883;BME280;2967;51.488;6.618;2023-03-26T05:00:53;100141.63;;;9.34;100.00
5883;BME280;2967;51.488;6.618;2023-03-26T05:05:56;100098.16;;;9.15;100.00
5883;BME280;2967;51.488;6.618;2023-03-26T05:10:59;100105.66;;;9.21;100.00
5883;BME280;2967;51.488;6.618;2023-03-26T05:16:10;100119.16;;;9.29;100.00
5883;BME280;2967;51.488;6.618;2023-03-26T05:21:16;100108.16;;;9.35;100.00
5883;BME280;2967;51.488;6.618;2023-03-26T05:26:19;100057.34;;;9.08;100.00
5883;BME280;2967;51.488;6.618;2023-03-26T05:31:27;100066.16;;;9.19;100.00
5883;BME280;2967;51.488;6.618;2023-03-26T05:36:32;100027.16;;;8.99;100.00
5883;BME280;2967;51.488;6.618;2023-03-26T05:41:54;100020.19;;;8.98;100.00
5883;BME280;2967;51.488;6.618;2023-03-26T05:47:16;99945.72;;;8.59;100.00
5883;BME280;2967;51.488;6.618;2023-03-26T05:52:22;100079.66;;;9.40;100.00
5883;BME280;2967;51.488;6.618;2023-03-26T05:57:43;100072.69;;;9.39;100.00
5883;BME280;2967;51.488;6.618;2023-03-26T06:03:07;100021.34;;;9.07;100.00
5883;BME280;2967;51.488;6.618;2023-03-26T06:08:36;100046.81;;;9.44;100.00
5883;BME280;2967;51.488;6.618;2023-03-26T06:13:40;100037.72;;;9.48;100.00
5883;BME280;2967;51.488;6.618;2023-03-26T06:18:45;100040.97;;;9.51;100.00
5883;BME280;2967;51.488;6.618;2023-03-26T06:24:04;100020.00;;;9.37;100.00
5883;BME280;2967;51.488;6.618;2023-03-26T06:29:15;99929.63;;;8.87;100.00
5883;BME280;2967;51.488;6.618;2023-03-26T06:34:25;100031.88;;;9.55;100.00
5883;BME280;2967;51.488;6.618;2023-03-26T06:39:29;100029.75;;;9.60;100.00
5883;BME280;2967;51.488;6.618;2023-03-26T06:44:45;100025.31;;;9.61;100.00
5883;BME280;2967;51.488;6.618;2023-03-26T06:49:55;100022.22;;;9.67;100.00
5883;BME280;2967;51.488;6.618;2023-03-26T06:55:11;100008.19;;;9.90;100.00
5883;BME280;2967;51.488;6.618;2023-03-26T07:00:37;100001.56;;;9.84;100.00
5883;BME280;2967;51.488;6.618;2023-03-26T07:06:00;99996.66;;;9.91;100.00
5883;BME280;2967;51.488;6.618;2023-03-26T07:11:21;99992.94;;;9.93;100.00
5883;BME280;2967;51.488;6.618;2023-03-26T07:16:49;99906.66;;;9.47;100.00
5883;BME280;2967;51.488;6.618;2023-03-26T07:21:56;99885.41;;;9.37;100.00
5883;BME280;2967;51.488;6.618;2023-03-26T07:27:34;99773.47;;;8.71;100.00
5883;BME280;2967;51.488;6.618;2023-03-26T07:32:49;99972.91;;;10.02;100.00
5883;BME280;2967;51.488;6.618;2023-03-26T07:38:35;99940.66;;;9.86;100.00
5883;BME280;2967;51.488;6.618;2023-03-26T07:44:39;99850.63;;;9.32;100.00
5883;BME280;2967;51.488;6.618;2023-03-26T07:49:54;99865.44;;;9.57;100.00
5883;BME280;2967;51.488;6.618;2023-03-26T07:55:15;99904.19;;;9.80;100.00
5883;BME280;2967;51.488;6.618;2023-03-26T08:00:40;99951.13;;;10.11;100.00
5883;BME280;2967;51.488;6.618;2023-03-26T08:05:58;99944.53;;;10.16;100.00
5883;BME280;2967;51.488;6.618;2023-03-26T08:11:20;99843.88;;;9.63;100.00
5883;BME280;2967;51.488;6.618;2023-03-26T08:16:38;99890.50;;;9.97;100.00
5883;BME280;2967;51.488;6.618;2023-03-26T08:21:46;99942.84;;;10.15;100.00
5883;BME280;2967;51.488;6.618;2023-03-26T08:26:56;99944.06;;;10.22;100.00
5883;BME280;2967;51.488;6.618;2023-03-26T08:32:03;99847.22;;;9.65;100.00
5883;BME280;2967;51.488;6.618;2023-03-26T08:37:06;99941.91;;;10.27;100.00
5883;BME280;2967;51.488;6.618;2023-03-26T08:59:36;99906.81;;;10.25;100.00
5883;BME280;2967;51.488;6.618;2023-03-26T09:05:16;99929.41;;;10.40;100.00
5883;BME280;2967;51.488;6.618;2023-03-26T09:10:51;99890.47;;;10.20;100.00
5883;BME280;2967;51.488;6.618;2023-03-26T09:16:21;99930.50;;;10.38;100.00
5883;BME280;2967;51.488;6.618;2023-03-26T09:21:53;99903.91;;;10.17;100.00
5883;BME280;2967;51.488;6.618;2023-03-26T09:27:08;99922.34;;;10.41;100.00
5883;BME280;2967;51.488;6.618;2023-03-26T09:32:52;99915.00;;;10.33;100.00
5883;BME280;2967;51.488;6.618;2023-03-26T09:38:10;99933.50;;;10.33;100.00
5883;BME280;2967;51.488;6.618;2023-03-26T09:43:34;99918.13;;;10.38;100.00
5883;BME280;2967;51.488;6.618;2023-03-26T09:49:03;99666.41;;;8.92;100.00
5883;BME280;2967;51.488;6.618;2023-03-26T09:54:37;99857.44;;;10.15;100.00
5883;BME280;2967;51.488;6.618;2023-03-26T10:00:00;99872.56;;;10.24;100.00
5883;BME280;2967;51.488;6.618;2023-03-26T10:05:53;99906.59;;;10.50;100.00
5883;BME280;2967;51.488;6.618;2023-03-26T10:11:02;99844.72;;;10.20;100.00
5883;BME280;2967;51.488;6.618;2023-03-26T10:16:17;99894.31;;;10.49;100.00
5883;BME280;2967;51.488;6.618;2023-03-26T10:21:39;99604.53;;;8.74;100.00
5883;BME280;2967;51.488;6.618;2023-03-26T10:27:11;99705.50;;;9.43;100.00
5883;BME280;2967;51.488;6.618;2023-03-26T10:32:24;99845.91;;;10.27;100.00
5883;BME280;2967;51.488;6.618;2023-03-26T10:37:46;99656.59;;;9.05;100.00
5883;BME280;2967;51.488;6.618;2023-03-26T10:43:13;99897.69;;;10.62;100.00
5883;BME280;2967;51.488;6.618;2023-03-26T10:48:53;99737.06;;;9.67;100.00
5883;BME280;2967;51.488;6.618;2023-03-26T10:54:07;99765.53;;;9.85;100.00
5883;BME280;2967;51.488;6.618;2023-03-26T10:59:15;99851.41;;;10.45;100.00
5883;BME280;2967;51.488;6.618;2023-03-26T11:04:31;99831.84;;;10.37;100.00
5883;BME280;2967;51.488;6.618;2023-03-26T11:09:50;99883.75;;;10.60;100.00
5883;BME280;2967;51.488;6.618;2023-03-26T11:15:19;99821.66;;;10.22;100.00
5883;BME280;2967;51.488;6.618;2023-03-26T11:20:31;99640.66;;;8.95;100.00
5883;BME280;2967;51.488;6.618;2023-03-26T11:25:50;99904.28;;;10.56;100.00
5883;BME280;2967;51.488;6.618;2023-03-26T11:31:03;99918.00;;;10.61;100.00
5883;BME280;2967;51.488;6.618;2023-03-26T11:36:16;99668.91;;;9.28;100.00
5883;BME280;2967;51.488;6.618;2023-03-26T11:41:24;99902.03;;;10.74;100.00
5883;BME280;2967;51.488;6.618;2023-03-26T11:46:48;99902.25;;;10.71;100.00
5883;BME280;2967;51.488;6.618;2023-03-26T11:51:54;99903.44;;;10.89;100.00
5883;BME280;2967;51.488;6.618;2023-03-26T11:57:01;99847.59;;;10.49;100.00
5883;BME280;2967;51.488;6.618;2023-03-26T12:02:17;99877.13;;;10.87;100.00
5883;BME280;2967;51.488;6.618;2023-03-26T12:07:30;99909.03;;;11.17;100.00
5883;BME280;2967;51.488;6.618;2023-03-26T12:12:37;99693.34;;;9.96;100.00
5883;BME280;2967;51.488;6.618;2023-03-26T12:17:41;99760.38;;;10.39;100.00
5883;BME280;2967;51.488;6.618;2023-03-26T12:22:46;99870.88;;;11.51;100.00
5883;BME280;2967;51.488;6.618;2023-03-26T12:27:59;99899.69;;;11.76;100.00
5883;BME280;2967;51.488;6.618;2023-03-26T12:33:05;99836.84;;;11.47;100.00
5883;BME280;2967;51.488;6.618;2023-03-26T12:38:22;99684.06;;;10.65;100.00
5883;BME280;2967;51.488;6.618;2023-03-26T12:43:36;99901.56;;;11.85;100.00
5883;BME280;2967;51.488;6.618;2023-03-26T12:49:11;99640.94;;;10.34;100.00
5883;BME280;2967;51.488;6.618;2023-03-26T12:54:38;99763.38;;;11.08;100.00
5883;BME280;2967;51.488;6.618;2023-03-26T13:00:05;99658.00;;;10.41;100.00
5883;BME280;2967;51.488;6.618;2023-03-26T13:05:30;99900.78;;;11.94;100.00
5883;BME280;2967;51.488;6.618;2023-03-26T13:10:48;99906.28;;;12.23;100.00
5883;BME280;2967;51.488;6.618;2023-03-26T13:15:58;99896.91;;;12.19;100.00
5883;BME280;2967;51.488;6.618;2023-03-26T13:21:08;99718.84;;;11.33;100.00
5883;BME280;2967;51.488;6.618;2023-03-26T13:26:37;99852.81;;;11.97;100.00
5883;BME280;2967;51.488;6.618;2023-03-26T13:32:07;99912.84;;;12.49;100.00
5883;BME280;2967;51.488;6.618;2023-03-26T13:37:24;99871.78;;;11.93;100.00
5883;BME280;2967;51.488;6.618;2023-03-26T13:42:46;99843.44;;;11.52;100.00
5883;BME280;2967;51.488;6.618;2023-03-26T13:48:07;99909.84;;;11.71;100.00
5883;BME280;2967;51.488;6.618;2023-03-26T13:53:26;99924.94;;;11.49;100.00
5883;BME280;2967;51.488;6.618;2023-03-26T13:59:10;99726.50;;;10.00;100.00
5883;BME280;2967;51.488;6.618;2023-03-26T14:04:22;99918.00;;;10.83;100.00
5883;BME280;2967;51.488;6.618;2023-03-26T14:09:38;99905.75;;;10.71;100.00
5883;BME280;2967;51.488;6.618;2023-03-26T14:14:54;99934.38;;;10.77;100.00
5883;BME280;2967;51.488;6.618;2023-03-26T14:26:00;99682.81;;;9.41;100.00
5883;BME280;2967;51.488;6.618;2023-03-26T14:31:19;99867.41;;;10.44;100.00
5883;BME280;2967;51.488;6.618;2023-03-26T14:37:01;99670.44;;;9.30;100.00
5883;BME280;2967;51.488;6.618;2023-03-26T14:42:26;99717.59;;;9.57;100.00
5883;BME280;2967;51.488;6.618;2023-03-26T14:47:36;99966.09;;;10.99;100.00
5883;BME280;2967;51.488;6.618;2023-03-26T14:52:49;99793.72;;;9.85;100.00
5883;BME280;2967;51.488;6.618;2023-03-26T14:58:12;99681.28;;;8.93;100.00
5883;BME280;2967;51.488;6.618;2023-03-26T15:15:33;99859.00;;;9.72;100.00
5883;BME280;2967;51.488;6.618;2023-03-26T15:44:40;100053.00;;;10.26;100.00
5883;BME280;2967;51.488;6.618;2023-03-26T15:50:00;100052.59;;;10.08;100.00
5883;BME280;2967;51.488;6.618;2023-03-26T15:55:24;99918.19;;;8.99;100.00
5883;BME280;2967;51.488;6.618;2023-03-26T16:00:42;99970.59;;;9.39;100.00
5883;BME280;2967;51.488;6.618;2023-03-26T16:11:47;100015.56;;;9.61;100.00
5883;BME280;2967;51.488;6.618;2023-03-26T16:16:57;100104.22;;;10.36;100.00
5883;BME280;2967;51.488;6.618;2023-03-26T16:22:41;99652.66;;;7.46;100.00
5883;BME280;2967;51.488;6.618;2023-03-26T16:29:17;100042.19;;;9.71;100.00
5883;BME280;2967;51.488;6.618;2023-03-26T16:34:36;100095.47;;;9.76;100.00
5883;BME280;2967;51.488;6.618;2023-03-26T16:39:41;99994.63;;;9.11;100.00
5883;BME280;2967;51.488;6.618;2023-03-26T16:45:22;99899.66;;;8.39;100.00
5883;BME280;2967;51.488;6.618;2023-03-26T16:50:43;100040.19;;;9.26;100.00
5883;BME280;2967;51.488;6.618;2023-03-26T16:55:55;99974.69;;;8.59;100.00
5883;BME280;2967;51.488;6.618;2023-03-26T17:01:07;100122.06;;;9.37;100.00
5883;BME280;2967;51.488;6.618;2023-03-26T17:06:22;100200.38;;;9.74;100.00
5883;BME280;2967;51.488;6.618;2023-03-26T17:11:48;100169.59;;;9.37;100.00
5883;BME280;2967;51.488;6.618;2023-03-26T17:17:22;100239.91;;;9.63;100.00
5883;BME280;2967;51.488;6.618;2023-03-26T17:22:36;100250.38;;;9.52;100.00
5883;BME280;2967;51.488;6.618;2023-03-26T17:28:18;100171.06;;;8.91;100.00
5883;BME280;2967;51.488;6.618;2023-03-26T17:33:30;100096.09;;;8.31;100.00
5883;BME280;2967;51.488;6.618;2023-03-26T17:39:01;100317.59;;;9.34;100.00
5883;BME280;2967;51.488;6.618;2023-03-26T17:44:28;100239.63;;;8.91;100.00
5883;BME280;2967;51.488;6.618;2023-03-26T17:49:38;100208.88;;;8.65;100.00
5883;BME280;2967;51.488;6.618;2023-03-26T17:54:45;100244.44;;;8.72;100.00
5883;BME280;2967;51.488;6.618;2023-03-26T17:59:55;100337.16;;;9.05;100.00
5883;BME280;2967;51.488;6.618;2023-03-26T18:05:00;100177.09;;;8.01;100.00
5883;BME280;2967;51.488;6.618;2023-03-26T18:10:21;100373.91;;;9.08;100.00
5883;BME280;2967;51.488;6.618;2023-03-26T18:15:38;100372.53;;;9.02;100.00
5883;BME280;2967;51.488;6.618;2023-03-26T18:20:58;100308.06;;;8.53;100.00
5883;BME280;2967;51.488;6.618;2023-03-26T18:26:11;100203.75;;;7.82;100.00
5883;BME280;2967;51.488;6.618;2023-03-26T18:31:17;100406.94;;;8.87;100.00
5883;BME280;2967;51.488;6.618;2023-03-26T18:36:23;100396.50;;;8.71;100.00
5883;BME280;2967;51.488;6.618;2023-03-26T18:41:30;100442.47;;;8.67;100.00
5883;BME280;2967;51.488;6.618;2023-03-26T18:47:10;100439.19;;;8.78;100.00
5883;BME280;2967;51.488;6.618;2023-03-26T18:52:15;100366.13;;;8.10;100.00
5883;BME280;2967;51.488;6.618;2023-03-26T18:57:23;100227.88;;;7.19;100.00
5883;BME280;2967;51.488;6.618;2023-03-26T19:02:27;100467.44;;;8.62;100.00
5883;BME280;2967;51.488;6.618;2023-03-26T19:07:36;100491.16;;;8.48;100.00
5883;BME280;2967;51.488;6.618;2023-03-26T19:12:53;100235.25;;;6.99;100.00
5883;BME280;2967;51.488;6.618;2023-03-26T19:18:02;100498.41;;;8.44;100.00
5883;BME280;2967;51.488;6.618;2023-03-26T19:23:13;100423.50;;;7.91;100.00
5883;BME280;2967;51.488;6.618;2023-03-26T19:28:22;100488.81;;;8.14;100.00
5883;BME280;2967;51.488;6.618;2023-03-26T19:33:32;100536.88;;;8.33;100.00
5883;BME280;2967;51.488;6.618;2023-03-26T19:38:41;100497.84;;;8.10;100.00
5883;BME280;2967;51.488;6.618;2023-03-26T19:43:48;100246.41;;;6.43;100.00
5883;BME280;2967;51.488;6.618;2023-03-26T19:48:57;100369.84;;;7.05;98.79
5883;BME280;2967;51.488;6.618;2023-03-26T19:54:02;100564.63;;;8.09;98.80
5883;BME280;2967;51.488;6.618;2023-03-26T19:59:13;100499.84;;;7.62;98.65
5883;BME280;2967;51.488;6.618;2023-03-26T20:04:19;100592.84;;;8.07;99.48
5883;BME280;2967;51.488;6.618;2023-03-26T20:09:25;100578.81;;;7.77;98.79
5883;BME280;2967;51.488;6.618;2023-03-26T20:14:37;100614.47;;;7.82;96.75
5883;BME280;2967;51.488;6.618;2023-03-26T20:19:40;100638.81;;;7.86;98.45
5883;BME280;2967;51.488;6.618;2023-03-26T20:24:43;100636.28;;;7.84;97.14
5883;BME280;2967;51.488;6.618;2023-03-26T20:29:47;100611.41;;;7.59;97.37
5883;BME280;2967;51.488;6.618;2023-03-26T20:34:53;100382.38;;;6.07;97.33
5883;BME280;2967;51.488;6.618;2023-03-26T20:39:57;100690.03;;;7.65;95.93
5883;BME280;2967;51.488;6.618;2023-03-26T20:45:05;100587.09;;;7.08;97.88
5883;BME280;2967;51.488;6.618;2023-03-26T20:50:14;100611.16;;;7.00;96.83
5883;BME280;2967;51.488;6.618;2023-03-26T20:55:19;100619.50;;;7.08;97.78
5883;BME280;2967;51.488;6.618;2023-03-26T21:00:27;100716.31;;;7.50;97.30
5883;BME280;2967;51.488;6.618;2023-03-26T21:05:33;100729.66;;;7.47;96.41
5883;BME280;2967;51.488;6.618;2023-03-26T21:10:37;100663.94;;;6.97;95.37
5883;BME280;2967;51.488;6.618;2023-03-26T21:15:45;100511.59;;;5.95;95.28
5883;BME280;2967;51.488;6.618;2023-03-26T21:20:56;100754.94;;;7.17;95.84
5883;BME280;2967;51.488;6.618;2023-03-26T21:26:25;100631.78;;;6.07;96.56
5883;BME280;2967;51.488;6.618;2023-03-26T21:31:44;100770.72;;;6.83;97.18
5883;BME280;2967;51.488;6.618;2023-03-26T21:36:47;100641.78;;;5.99;98.32
5883;BME280;2967;51.488;6.618;2023-03-26T21:41:56;100807.59;;;6.81;99.18
5883;BME280;2967;51.488;6.618;2023-03-26T21:47:08;100749.25;;;6.21;100.00
5883;BME280;2967;51.488;6.618;2023-03-26T21:52:21;100820.50;;;6.50;100.00
5883;BME280;2967;51.488;6.618;2023-03-26T21:57:37;100842.38;;;6.51;100.00
5883;BME280;2967;51.488;6.618;2023-03-26T22:02:57;100830.13;;;6.33;100.00
5883;BME280;2967;51.488;6.618;2023-03-26T22:08:15;100856.59;;;6.28;100.00
5883;BME280;2967;51.488;6.618;2023-03-26T22:13:22;100854.03;;;6.08;100.00
5883;BME280;2967;51.488;6.618;2023-03-26T22:18:27;100849.91;;;6.03;100.00
5883;BME280;2967;51.488;6.618;2023-03-26T22:23:30;100834.69;;;5.91;100.00
5883;BME280;2967;51.488;6.618;2023-03-26T22:28:36;100897.44;;;6.15;100.00
5883;BME280;2967;51.488;6.618;2023-03-26T22:38:59;100812.31;;;5.44;100.00
5883;BME280;2967;51.488;6.618;2023-03-26T22:44:04;100900.84;;;5.99;100.00
5883;BME280;2967;51.488;6.618;2023-03-26T22:49:22;100930.34;;;6.24;100.00
5883;BME280;2967;51.488;6.618;2023-03-26T22:54:27;100940.97;;;6.21;100.00
5883;BME280;2967;51.488;6.618;2023-03-26T22:59:30;100929.88;;;6.14;100.00
5883;BME280;2967;51.488;6.618;2023-03-26T23:04:35;100970.31;;;6.30;100.00
5883;BME280;2967;51.488;6.618;2023-03-26T23:09:38;100968.75;;;6.26;100.00
5883;BME280;2967;51.488;6.618;2023-03-26T23:14:42;100975.72;;;6.27;100.00
5883;BME280;2967;51.488;6.618;2023-03-26T23:19:47;100999.16;;;6.32;100.00
5883;BME280;2967;51.488;6.618;2023-03-26T23:24:50;101001.06;;;6.28;100.00
5883;BME280;2967;51.488;6.618;2023-03-26T23:29:53;100993.31;;;6.05;100.00
5883;BME280;2967;51.488;6.618;2023-03-26T23:34:58;101015.50;;;6.18;100.00
5883;BME280;2967;51.488;6.618;2023-03-26T23:40:02;101032.84;;;6.22;100.00
5883;BME280;2967;51.488;6.618;2023-03-26T23:45:10;101041.88;;;6.35;100.00
5883;BME280;2967;51.488;6.618;2023-03-26T23:50:18;101038.88;;;6.24;100.00
5883;BME280;2967;51.488;6.618;2023-03-26T23:55:21;101013.81;;;5.97;100.00
